createdAt,value
2019-03-29T00:01:16.843Z,100152.90
2019-03-29T00:03:46.507Z,100147.45
2019-03-29T00:06:37.292Z,100145.77
2019-03-29T00:09:08.867Z,100150.77
2019-03-29T00:11:57.828Z,100144.19
2019-03-29T00:14:27.332Z,100146.95
2019-03-29T00:16:56.820Z,100142.20
2019-03-29T00:19:26.302Z,100149.18
2019-03-29T00:21:55.817Z,100144.05
2019-03-29T00:24:25.369Z,100142.73
2019-03-29T00:26:54.824Z,100145.22
2019-03-29T00:29:24.335Z,100143.81
2019-03-29T00:31:54.343Z,100144.19
2019-03-29T00:34:23.830Z,100146.45
2019-03-29T00:36:53.331Z,100150.78
2019-03-29T00:39:23.039Z,100150.09
2019-03-29T00:41:52.851Z,100148.36
2019-03-29T00:44:22.529Z,100150.36
2019-03-29T00:46:51.994Z,100150.03
2019-03-29T00:49:21.458Z,100155.53
2019-03-29T00:51:51.257Z,100152.98
2019-03-29T00:54:23.726Z,100151.58
2019-03-29T00:56:53.251Z,100149.39
2019-03-29T00:59:22.764Z,100145.14
2019-03-29T01:01:52.329Z,100138.52
2019-03-29T01:04:22.594Z,100139.20
2019-03-29T01:06:52.263Z,100139.42
2019-03-29T01:09:21.796Z,100137.65
2019-03-29T01:11:51.458Z,100137.06
2019-03-29T01:14:20.949Z,100134.09
2019-03-29T01:16:50.855Z,100134.53
2019-03-29T01:19:20.180Z,100128.13
2019-03-29T01:21:50.012Z,100132.27
2019-03-29T01:24:19.571Z,100134.03
2019-03-29T01:26:49.113Z,100131.25
2019-03-29T01:29:20.182Z,100131.84
2019-03-29T01:31:49.644Z,100133.50
2019-03-29T01:34:19.135Z,100131.68
2019-03-29T01:36:48.707Z,100126.98
2019-03-29T01:39:18.342Z,100130.52
2019-03-29T01:41:47.872Z,100133.47
2019-03-29T01:44:17.400Z,100128.17
2019-03-29T01:47:06.197Z,100127.59
2019-03-29T01:49:35.993Z,100125.66
2019-03-29T01:52:05.841Z,100116.64
2019-03-29T01:54:35.325Z,100110.62
2019-03-29T01:57:04.833Z,100108.68
2019-03-29T01:59:34.321Z,100108.73
2019-03-29T02:02:03.801Z,100103.14
2019-03-29T02:04:34.240Z,100100.44
2019-03-29T02:07:03.902Z,100096.68
2019-03-29T02:09:33.481Z,100102.77
2019-03-29T02:12:11.565Z,100097.75
2019-03-29T02:14:41.055Z,100096.56
2019-03-29T02:17:10.514Z,100092.25
2019-03-29T02:19:40.041Z,100093.66
2019-03-29T02:22:09.566Z,100090.21
2019-03-29T02:24:58.385Z,100091.99
2019-03-29T02:27:27.875Z,100089.68
2019-03-29T02:29:57.674Z,100088.17
2019-03-29T02:32:27.208Z,100085.75
2019-03-29T02:34:56.672Z,100087.14
2019-03-29T02:37:26.171Z,100090.27
2019-03-29T02:39:55.989Z,100091.27
2019-03-29T02:42:25.475Z,100087.84
2019-03-29T02:44:56.440Z,100085.79
2019-03-29T02:47:25.965Z,100086.23
2019-03-29T02:49:55.421Z,100081.86
2019-03-29T02:52:25.487Z,100078.63
2019-03-29T02:54:54.996Z,100078.07
2019-03-29T02:57:24.459Z,100079.91
2019-03-29T02:59:53.923Z,100084.11
2019-03-29T03:02:26.237Z,100083.17
2019-03-29T03:05:14.146Z,100084.97
2019-03-29T03:07:43.672Z,100082.55
2019-03-29T03:10:14.054Z,100081.20
2019-03-29T03:12:43.544Z,100079.12
2019-03-29T03:15:14.152Z,100077.94
2019-03-29T03:18:02.943Z,100079.49
2019-03-29T03:20:32.456Z,100076.04
2019-03-29T03:23:01.959Z,100077.72
2019-03-29T03:25:31.415Z,100077.42
2019-03-29T03:28:00.934Z,100076.41
2019-03-29T03:30:30.388Z,100072.80
2019-03-29T03:33:01.407Z,100077.73
2019-03-29T03:35:30.877Z,100079.98
2019-03-29T03:38:00.541Z,100082.05
2019-03-29T03:40:30.014Z,100074.55
2019-03-29T03:42:59.511Z,100077.20
2019-03-29T03:45:28.984Z,100084.40
2019-03-29T03:47:58.492Z,100081.96
2019-03-29T03:50:32.524Z,100076.73
2019-03-29T03:53:02.700Z,100077.66
2019-03-29T03:55:33.674Z,100063.77
2019-03-29T03:58:04.859Z,100068.91
2019-03-29T04:00:38.933Z,100066.07
2019-03-29T04:03:10.035Z,100070.19
2019-03-29T04:05:39.521Z,100067.87
2019-03-29T04:08:09.022Z,100066.62
2019-03-29T04:10:42.035Z,100068.55
2019-03-29T04:13:09.722Z,100071.23
2019-03-29T04:15:39.347Z,100062.89
2019-03-29T04:18:08.838Z,100061.14
2019-03-29T04:20:57.712Z,100064.39
2019-03-29T04:23:27.198Z,100064.33
2019-03-29T04:25:56.778Z,100064.17
2019-03-29T04:28:26.283Z,100062.12
2019-03-29T04:30:55.816Z,100063.55
2019-03-29T04:33:25.321Z,100063.12
2019-03-29T04:35:54.825Z,100067.41
2019-03-29T04:38:24.351Z,100063.77
2019-03-29T04:40:53.876Z,100069.47
2019-03-29T04:43:23.348Z,100067.27
2019-03-29T04:46:12.170Z,100070.77
2019-03-29T04:48:41.638Z,100067.91
2019-03-29T04:51:11.607Z,100067.53
2019-03-29T04:53:41.161Z,100074.73
2019-03-29T04:56:31.199Z,100077.84
2019-03-29T04:59:00.929Z,100080.91
2019-03-29T05:01:49.712Z,100085.25
2019-03-29T05:04:19.215Z,100076.43
2019-03-29T05:06:48.713Z,100083.72
2019-03-29T05:09:18.198Z,100075.77
2019-03-29T05:11:47.697Z,100080.69
2019-03-29T05:14:17.350Z,100082.70
2019-03-29T05:16:46.851Z,100083.06
2019-03-29T05:19:16.390Z,100083.21
2019-03-29T05:21:45.913Z,100085.00
2019-03-29T05:24:15.417Z,100084.91
2019-03-29T05:26:44.891Z,100081.70
2019-03-29T05:29:14.375Z,100085.16
2019-03-29T05:31:43.837Z,100088.03
2019-03-29T05:34:13.660Z,100081.56
2019-03-29T05:36:49.202Z,100082.53
2019-03-29T05:39:18.711Z,100083.97
2019-03-29T05:41:48.181Z,100080.39
2019-03-29T05:44:17.676Z,100075.19
2019-03-29T05:46:47.150Z,100079.64
2019-03-29T05:49:16.694Z,100079.84
2019-03-29T05:51:46.217Z,100082.88
2019-03-29T05:54:15.903Z,100081.05
2019-03-29T05:56:46.865Z,100080.00
2019-03-29T05:59:16.341Z,100076.69
2019-03-29T06:01:45.857Z,100074.45
2019-03-29T06:04:15.389Z,100079.36
2019-03-29T06:06:44.897Z,100084.14
2019-03-29T06:09:35.085Z,100077.13
2019-03-29T06:12:04.701Z,100078.73
2019-03-29T06:14:53.546Z,100078.91
2019-03-29T06:17:23.024Z,100078.56
2019-03-29T06:19:52.514Z,100080.50
2019-03-29T06:22:22.011Z,100077.19
2019-03-29T06:24:51.530Z,100074.09
2019-03-29T06:27:21.049Z,100073.20
2019-03-29T06:29:50.579Z,100075.21
2019-03-29T06:32:20.079Z,100071.67
2019-03-29T06:34:49.562Z,100071.23
2019-03-29T06:37:21.113Z,100060.89
2019-03-29T06:39:52.984Z,100048.66
2019-03-29T06:42:22.478Z,100041.13
2019-03-29T06:44:51.979Z,100029.39
2019-03-29T06:47:21.519Z,100027.03
2019-03-29T06:49:51.014Z,100026.71
2019-03-29T06:52:20.524Z,100015.97
2019-03-29T06:54:50.115Z,100022.33
2019-03-29T06:57:19.611Z,100030.78
2019-03-29T06:59:49.159Z,100035.54
2019-03-29T07:02:18.627Z,100037.80
2019-03-29T07:04:48.119Z,100022.80
2019-03-29T07:07:17.656Z,100021.09
2019-03-29T07:09:47.126Z,100019.19
2019-03-29T07:12:16.646Z,100019.92
2019-03-29T07:14:46.171Z,100026.21
2019-03-29T07:17:15.678Z,100023.45
2019-03-29T07:19:45.181Z,100021.08
2019-03-29T07:22:14.716Z,100009.27
2019-03-29T07:24:44.309Z,100021.38
2019-03-29T07:27:13.846Z,100000.64
2019-03-29T07:29:43.677Z,100009.03
2019-03-29T07:32:13.928Z,99988.95
2019-03-29T07:34:43.441Z,99980.27
2019-03-29T07:37:15.593Z,99977.13
2019-03-29T07:39:45.097Z,99982.70
2019-03-29T07:42:14.643Z,99972.57
2019-03-29T07:44:44.162Z,99971.08
2019-03-29T07:47:32.982Z,99971.73
2019-03-29T07:50:02.505Z,99956.50
2019-03-29T07:52:32.012Z,99938.59
2019-03-29T07:55:01.490Z,99944.36
2019-03-29T07:57:30.999Z,99947.66
2019-03-29T08:00:00.614Z,99942.06
2019-03-29T08:02:30.147Z,99943.89
2019-03-29T08:04:59.680Z,99941.84
2019-03-29T08:07:31.459Z,99932.98
2019-03-29T08:10:03.300Z,99926.27
2019-03-29T08:12:31.776Z,99939.45
2019-03-29T08:15:01.490Z,99943.91
2019-03-29T08:17:31.036Z,99931.12
2019-03-29T08:20:35.996Z,99943.03
2019-03-29T08:22:31.864Z,99949.66
2019-03-29T08:25:10.413Z,99942.27
2019-03-29T08:27:39.888Z,99934.08
2019-03-29T08:30:10.004Z,99934.67
2019-03-29T08:32:39.545Z,99932.26
2019-03-29T08:35:09.507Z,99920.84
2019-03-29T08:37:38.990Z,99897.44
2019-03-29T08:40:08.928Z,99885.56
2019-03-29T08:42:38.399Z,99914.43
2019-03-29T08:45:08.970Z,99909.49
2019-03-29T08:47:38.478Z,99892.28
2019-03-29T08:50:08.660Z,99888.09
2019-03-29T08:52:38.142Z,99889.28
2019-03-29T08:55:08.774Z,99900.94
2019-03-29T08:57:47.388Z,99903.83
2019-03-29T09:00:21.457Z,99905.09
2019-03-29T09:02:50.952Z,99916.28
2019-03-29T09:05:20.435Z,99930.40
2019-03-29T09:07:50.232Z,99917.13
2019-03-29T09:10:39.024Z,99914.11
2019-03-29T09:13:08.557Z,99907.72
2019-03-29T09:15:39.335Z,99914.44
2019-03-29T09:18:11.586Z,99896.90
2019-03-29T09:20:41.510Z,99904.33
2019-03-29T09:23:11.026Z,99896.70
2019-03-29T09:25:43.398Z,99891.56
2019-03-29T09:28:13.318Z,99901.02
2019-03-29T09:31:02.126Z,99880.83
2019-03-29T09:33:31.560Z,99902.59
2019-03-29T09:36:01.069Z,99887.91
2019-03-29T09:38:30.580Z,99881.55
2019-03-29T09:41:21.503Z,99872.39
2019-03-29T09:43:54.028Z,99882.80
2019-03-29T09:46:22.172Z,99863.77
2019-03-29T09:48:51.730Z,99861.56
2019-03-29T09:51:21.242Z,99853.09
2019-03-29T09:54:10.042Z,99862.54
2019-03-29T09:56:39.767Z,99863.09
2019-03-29T09:59:09.316Z,99874.35
2019-03-29T10:01:39.941Z,99856.17
2019-03-29T10:04:28.784Z,99862.59
2019-03-29T10:07:17.654Z,99857.91
2019-03-29T10:09:47.132Z,99854.36
2019-03-29T10:12:16.612Z,99857.97
2019-03-29T10:14:46.153Z,99850.34
2019-03-29T10:17:15.798Z,99851.94
2019-03-29T10:19:45.291Z,99845.62
2019-03-29T10:22:15.274Z,99849.34
2019-03-29T10:24:44.759Z,99845.38
2019-03-29T10:27:33.584Z,99837.58
2019-03-29T10:30:25.437Z,99823.41
2019-03-29T10:32:55.512Z,99830.84
2019-03-29T10:35:25.114Z,99830.97
2019-03-29T10:37:54.629Z,99848.56
2019-03-29T10:40:24.153Z,99820.16
2019-03-29T10:42:58.114Z,99834.46
2019-03-29T10:45:24.913Z,99829.24
2019-03-29T10:47:54.489Z,99818.44
2019-03-29T10:50:24.264Z,99804.72
2019-03-29T10:53:13.117Z,99792.39
2019-03-29T10:55:42.539Z,99799.81
2019-03-29T10:58:12.283Z,99803.31
2019-03-29T11:00:42.285Z,99824.95
2019-03-29T11:03:13.551Z,99806.67
2019-03-29T11:05:43.223Z,99803.03
2019-03-29T11:08:13.049Z,99807.81
2019-03-29T11:10:43.684Z,99799.38
2019-03-29T11:13:14.321Z,99800.34
2019-03-29T11:15:44.431Z,99802.95
2019-03-29T11:18:33.222Z,99805.68
2019-03-29T11:21:02.765Z,99796.90
2019-03-29T11:23:32.266Z,99801.27
2019-03-29T11:26:01.757Z,99799.66
2019-03-29T11:28:32.953Z,99787.69
2019-03-29T11:31:24.002Z,99784.91
2019-03-29T11:33:52.951Z,99777.41
2019-03-29T11:36:22.441Z,99777.66
2019-03-29T11:38:52.691Z,99783.97
2019-03-29T11:41:28.253Z,99775.51
2019-03-29T11:43:57.817Z,99768.38
2019-03-29T11:46:27.421Z,99771.72
2019-03-29T11:48:57.031Z,99775.23
2019-03-29T11:51:45.879Z,99763.63
2019-03-29T11:54:15.386Z,99760.80
2019-03-29T11:56:47.460Z,99773.97
2019-03-29T11:59:16.858Z,99774.16
2019-03-29T12:01:59.128Z,99765.38
2019-03-29T12:04:28.647Z,99772.11
2019-03-29T12:06:58.112Z,99770.48
2019-03-29T12:09:27.821Z,99757.70
2019-03-29T12:11:57.306Z,99753.81
2019-03-29T12:14:26.784Z,99748.87
2019-03-29T12:16:56.341Z,99740.61
2019-03-29T12:19:25.903Z,99730.61
2019-03-29T12:21:55.393Z,99746.12
2019-03-29T12:24:24.945Z,99739.89
2019-03-29T12:26:55.114Z,99731.56
2019-03-29T12:29:24.715Z,99723.52
2019-03-29T12:32:13.583Z,99724.49
2019-03-29T12:34:43.087Z,99727.39
2019-03-29T12:37:12.595Z,99716.97
2019-03-29T12:39:42.250Z,99703.05
2019-03-29T12:42:11.743Z,99696.95
2019-03-29T12:44:41.203Z,99704.99
2019-03-29T12:47:10.697Z,99717.41
2019-03-29T12:49:40.188Z,99711.34
2019-03-29T12:52:09.696Z,99704.42
2019-03-29T12:54:39.208Z,99690.20
2019-03-29T12:57:10.229Z,99681.59
2019-03-29T12:59:39.962Z,99686.27
2019-03-29T13:02:10.299Z,99688.63
2019-03-29T13:04:39.780Z,99680.77
2019-03-29T13:07:09.253Z,99666.50
2019-03-29T13:09:39.918Z,99660.95
2019-03-29T13:12:09.712Z,99662.16
2019-03-29T13:14:39.171Z,99654.77
2019-03-29T13:17:08.935Z,99662.12
2019-03-29T13:19:38.626Z,99659.36
2019-03-29T13:22:08.888Z,99666.72
2019-03-29T13:24:58.144Z,99567.19
2019-03-29T13:27:27.628Z,99648.39
2019-03-29T13:29:57.091Z,99645.49
2019-03-29T13:32:26.653Z,99639.24
2019-03-29T13:34:56.153Z,99641.42
2019-03-29T13:37:25.663Z,99642.33
2019-03-29T13:39:55.167Z,99636.13
2019-03-29T13:42:24.681Z,99626.41
2019-03-29T13:44:54.133Z,99630.83
2019-03-29T13:47:23.657Z,99624.42
2019-03-29T13:49:53.132Z,99629.47
2019-03-29T13:52:22.602Z,99625.86
2019-03-29T13:54:52.152Z,99617.61
2019-03-29T13:57:21.642Z,99616.69
2019-03-29T13:59:51.404Z,99618.84
2019-03-29T14:02:21.149Z,99609.89
2019-03-29T14:04:50.618Z,99601.80
2019-03-29T14:07:20.127Z,99597.19
2019-03-29T14:09:49.647Z,99596.03
2019-03-29T14:12:39.581Z,99506.72
2019-03-29T14:15:12.993Z,99587.47
2019-03-29T14:18:01.827Z,99590.03
2019-03-29T14:20:33.831Z,99597.56
2019-03-29T14:23:04.921Z,99579.48
2019-03-29T14:25:34.672Z,99573.82
2019-03-29T14:28:07.171Z,99574.73
2019-03-29T14:30:36.687Z,99570.39
2019-03-29T14:33:25.462Z,99567.53
2019-03-29T14:35:55.952Z,99561.48
2019-03-29T14:38:25.446Z,99570.65
2019-03-29T14:40:55.497Z,99576.30
2019-03-29T14:43:24.981Z,99572.02
2019-03-29T14:45:54.490Z,99561.86
2019-03-29T14:48:24.058Z,99561.27
2019-03-29T14:50:53.561Z,99554.50
2019-03-29T14:53:24.563Z,99554.67
2019-03-29T14:55:54.187Z,99549.42
2019-03-29T14:58:23.645Z,99544.47
2019-03-29T15:00:53.358Z,99550.22
2019-03-29T15:03:22.869Z,99544.13
2019-03-29T15:06:01.597Z,99537.75
2019-03-29T15:08:29.785Z,99542.67
2019-03-29T15:10:59.247Z,99536.37
2019-03-29T15:13:28.708Z,99535.17
2019-03-29T15:15:58.199Z,99538.06
2019-03-29T15:18:29.216Z,99533.95
2019-03-29T15:21:04.402Z,99535.49
2019-03-29T15:23:33.957Z,99537.31
2019-03-29T15:26:03.732Z,99534.45
2019-03-29T15:28:33.275Z,99536.67
2019-03-29T15:31:02.755Z,99536.09
2019-03-29T15:33:32.218Z,99528.55
2019-03-29T15:36:01.720Z,99534.75
2019-03-29T15:38:31.184Z,99537.81
2019-03-29T15:41:00.690Z,99532.91
2019-03-29T15:43:36.137Z,99529.20
2019-03-29T15:46:05.664Z,99526.91
2019-03-29T15:48:35.162Z,99530.66
2019-03-29T15:51:24.021Z,99531.55
2019-03-29T15:53:53.505Z,99527.80
2019-03-29T15:56:24.548Z,99525.44
2019-03-29T15:58:55.690Z,99521.94
2019-03-29T16:01:25.534Z,99515.57
2019-03-29T16:03:55.028Z,99521.74
2019-03-29T16:06:24.559Z,99515.50
2019-03-29T16:08:54.019Z,99507.53
2019-03-29T16:11:23.525Z,99510.50
2019-03-29T16:13:53.040Z,99510.07
2019-03-29T16:16:22.526Z,99515.06
2019-03-29T16:18:52.033Z,99516.42
2019-03-29T16:21:21.547Z,99511.75
2019-03-29T16:23:51.062Z,99510.59
2019-03-29T16:26:20.551Z,99509.65
2019-03-29T16:28:50.080Z,99511.03
2019-03-29T16:31:19.538Z,99511.70
2019-03-29T16:33:49.050Z,99511.75
2019-03-29T16:36:18.568Z,99510.67
2019-03-29T16:39:08.306Z,99505.75
2019-03-29T16:41:38.470Z,99507.34
2019-03-29T16:44:08.030Z,99511.01
2019-03-29T16:46:37.529Z,99507.88
2019-03-29T16:49:07.047Z,99510.47
2019-03-29T16:51:36.708Z,99510.66
2019-03-29T16:54:06.245Z,99507.22
2019-03-29T16:56:35.863Z,99505.31
2019-03-29T16:59:05.723Z,99505.55
2019-03-29T17:01:35.283Z,99501.82
2019-03-29T17:04:05.444Z,99505.23
2019-03-29T17:06:35.097Z,99502.73
2019-03-29T17:09:06.994Z,99510.31
2019-03-29T17:11:36.722Z,99507.11
2019-03-29T17:14:06.624Z,99504.75
2019-03-29T17:16:41.883Z,99505.35
2019-03-29T17:19:11.386Z,99501.41
2019-03-29T17:21:40.891Z,99502.48
2019-03-29T17:24:10.394Z,99509.16
2019-03-29T17:26:39.860Z,99507.91
2019-03-29T17:29:09.367Z,99509.50
2019-03-29T17:31:38.894Z,99507.94
2019-03-29T17:34:11.156Z,99517.62
2019-03-29T17:36:43.502Z,99516.55
2019-03-29T17:39:13.233Z,99516.20
2019-03-29T17:41:42.788Z,99517.91
2019-03-29T17:44:12.274Z,99521.55
2019-03-29T17:46:41.783Z,99516.52
2019-03-29T17:49:11.258Z,99519.33
2019-03-29T17:51:40.774Z,99518.41
2019-03-29T17:54:10.256Z,99517.56
2019-03-29T17:56:39.749Z,99515.24
2019-03-29T17:59:09.272Z,99515.56
2019-03-29T18:01:39.833Z,99518.18
2019-03-29T18:04:09.318Z,99524.56
2019-03-29T18:06:58.323Z,99523.80
2019-03-29T18:09:47.138Z,99407.52
2019-03-29T18:12:16.641Z,99528.22
2019-03-29T18:14:46.232Z,99530.41
2019-03-29T18:17:15.737Z,99531.49
2019-03-29T18:19:45.364Z,99529.06
2019-03-29T18:22:14.843Z,99534.22
2019-03-29T18:24:44.456Z,99533.17
2019-03-29T18:27:14.139Z,99538.28
2019-03-29T18:29:43.615Z,99534.22
2019-03-29T18:32:13.744Z,99533.67
2019-03-29T18:34:43.300Z,99536.41
2019-03-29T18:37:14.505Z,99531.98
2019-03-29T18:39:45.477Z,99534.80
2019-03-29T18:42:14.977Z,99535.85
2019-03-29T18:44:44.451Z,99534.92
2019-03-29T18:47:13.939Z,99538.25
2019-03-29T18:49:43.495Z,99538.72
2019-03-29T18:52:13.150Z,99541.60
2019-03-29T18:54:44.171Z,99541.00
2019-03-29T18:57:13.662Z,99543.70
2019-03-29T18:59:43.147Z,99544.61
2019-03-29T19:02:13.194Z,99547.51
2019-03-29T19:04:42.771Z,99546.94
2019-03-29T19:07:12.279Z,99544.00
2019-03-29T19:09:41.784Z,99549.48
2019-03-29T19:12:11.284Z,99545.58
2019-03-29T19:14:41.794Z,99549.01
2019-03-29T19:17:11.477Z,99548.37
2019-03-29T19:19:40.988Z,99555.14
2019-03-29T19:22:10.456Z,99551.39
2019-03-29T19:24:39.938Z,99549.70
2019-03-29T19:27:09.440Z,99545.84
2019-03-29T19:29:38.948Z,99545.74
2019-03-29T19:32:08.581Z,99544.95
2019-03-29T19:34:38.109Z,99538.48
2019-03-29T19:37:07.575Z,99540.55
2019-03-29T19:39:37.113Z,99539.67
2019-03-29T19:42:07.131Z,99543.99
2019-03-29T19:44:36.632Z,99542.34
2019-03-29T19:47:13.482Z,99539.36
2019-03-29T19:49:37.400Z,99538.09
2019-03-29T19:52:07.057Z,99539.95
2019-03-29T19:54:36.541Z,99535.81
2019-03-29T19:57:08.949Z,99535.43
2019-03-29T19:59:38.511Z,99536.18
2019-03-29T20:02:07.972Z,99534.06
2019-03-29T20:04:45.269Z,99533.26
2019-03-29T20:07:20.315Z,99531.00
2019-03-29T20:09:52.481Z,99534.36
2019-03-29T20:12:24.973Z,99533.95
2019-03-29T20:14:54.747Z,99530.91
2019-03-29T20:17:27.688Z,99531.95
2019-03-29T20:19:55.589Z,99530.30
2019-03-29T20:22:25.047Z,99525.39
2019-03-29T20:24:54.565Z,99533.27
2019-03-29T20:27:24.047Z,99532.39
2019-03-29T20:29:53.534Z,99536.34
2019-03-29T20:32:23.008Z,99534.71
2019-03-29T20:34:52.500Z,99530.26
2019-03-29T20:37:22.003Z,99530.16
2019-03-29T20:39:51.480Z,99524.48
2019-03-29T20:42:20.960Z,99528.08
2019-03-29T20:44:50.719Z,99528.07
2019-03-29T20:47:20.683Z,99528.50
2019-03-29T20:49:50.152Z,99532.88
2019-03-29T20:52:19.700Z,99534.25
2019-03-29T20:54:49.163Z,99535.28
2019-03-29T20:57:18.713Z,99533.92
2019-03-29T20:59:48.172Z,99531.21
2019-03-29T21:02:17.687Z,99533.72
2019-03-29T21:04:47.775Z,99527.09
2019-03-29T21:07:17.753Z,99531.81
2019-03-29T21:09:47.349Z,99523.55
2019-03-29T21:12:16.811Z,99524.04
2019-03-29T21:14:46.307Z,99518.94
2019-03-29T21:17:15.947Z,99524.00
2019-03-29T21:19:45.414Z,99521.10
2019-03-29T21:22:15.263Z,99524.44
2019-03-29T21:24:44.759Z,99519.84
2019-03-29T21:27:14.240Z,99517.17
2019-03-29T21:29:43.714Z,99509.06
2019-03-29T21:32:13.217Z,99511.06
2019-03-29T21:34:42.713Z,99506.89
2019-03-29T21:37:17.845Z,99512.61
2019-03-29T21:39:47.339Z,99511.33
2019-03-29T21:42:19.591Z,99514.20
2019-03-29T21:44:49.134Z,99506.09
2019-03-29T21:47:24.235Z,99513.77
2019-03-29T21:49:57.526Z,99507.23
2019-03-29T21:52:26.992Z,99503.02
2019-03-29T21:54:56.445Z,99504.61
2019-03-29T21:57:25.973Z,99501.73
2019-03-29T21:59:55.447Z,99503.07
2019-03-29T22:02:24.981Z,99503.02
2019-03-29T22:04:54.560Z,99496.20
2019-03-29T22:07:24.028Z,99500.02
2019-03-29T22:09:53.506Z,99496.06
2019-03-29T22:12:23.008Z,99489.64
2019-03-29T22:14:52.489Z,99492.92
2019-03-29T22:17:22.212Z,99493.05
2019-03-29T22:19:51.733Z,99491.60
2019-03-29T22:22:21.199Z,99489.58
2019-03-29T22:24:50.688Z,99494.92
2019-03-29T22:27:20.239Z,99491.48
2019-03-29T22:29:49.722Z,99495.44
2019-03-29T22:32:21.895Z,99483.11
2019-03-29T22:34:51.475Z,99484.13
2019-03-29T22:37:23.572Z,99487.80
2019-03-29T22:39:53.040Z,99487.77
2019-03-29T22:42:22.798Z,99487.98
2019-03-29T22:44:52.254Z,99487.86
2019-03-29T22:47:21.710Z,99484.87
2019-03-29T22:49:51.375Z,99486.86
2019-03-29T22:52:20.877Z,99487.27
2019-03-29T22:54:50.323Z,99483.48
2019-03-29T22:57:20.209Z,99484.17
2019-03-29T22:59:49.701Z,99482.44
2019-03-29T23:02:19.507Z,99483.28
2019-03-29T23:04:51.781Z,99483.19
2019-03-29T23:07:22.984Z,99484.16
2019-03-29T23:09:58.472Z,99486.81
2019-03-29T23:12:27.923Z,99487.30
2019-03-29T23:15:03.369Z,99481.63
2019-03-29T23:17:37.084Z,99476.73
2019-03-29T23:20:07.026Z,99477.15
2019-03-29T23:22:36.514Z,99470.02
2019-03-29T23:25:06.979Z,99465.94
2019-03-29T23:27:36.829Z,99469.38
2019-03-29T23:30:08.111Z,99467.73
2019-03-29T23:32:42.214Z,99465.36
2019-03-29T23:35:11.996Z,99464.56
2019-03-29T23:37:41.550Z,99457.28
2019-03-29T23:40:12.369Z,99463.15
2019-03-29T23:42:44.778Z,99466.11
2019-03-29T23:45:14.668Z,99467.39
2019-03-29T23:47:44.304Z,99466.59
2019-03-29T23:50:16.559Z,99465.34
2019-03-29T23:52:48.942Z,99463.40
2019-03-29T23:55:18.424Z,99460.44
2019-03-29T23:57:47.901Z,99458.50
